sensor_id;sensor_type;location;lat;lon;timestamp;P1;durP1;ratioP1;P2;durP2;ratioP2
1753;SDS011;58380;48.312;9.246;2023-03-01T06:46:34;24.45;;;11.85;;
1753;SDS011;58380;48.312;9.246;2023-03-01T06:49:00;26.03;;;12.37;;
1753;SDS011;58380;48.312;9.246;2023-03-01T06:51:25;24.47;;;12.17;;
1753;SDS011;58380;48.312;9.246;2023-03-01T06:53:51;25.58;;;11.63;;
1753;SDS011;58380;48.312;9.246;2023-03-01T06:56:16;27.43;;;11.73;;
1753;SDS011;58380;48.312;9.246;2023-03-01T06:58:42;26.23;;;12.17;;
1753;SDS011;58380;48.312;9.246;2023-03-01T07:01:07;24.63;;;13.10;;
1753;SDS011;58380;48.312;9.246;2023-03-01T07:03:34;25.75;;;12.10;;
1753;SDS011;58380;48.312;9.246;2023-03-01T07:05:59;24.88;;;12.95;;
1753;SDS011;58380;48.312;9.246;2023-03-01T07:08:25;24.63;;;11.83;;
1753;SDS011;58380;48.312;9.246;2023-03-01T07:10:57;26.50;;;12.57;;
1753;SDS011;58380;48.312;9.246;2023-03-01T07:13:23;27.65;;;13.07;;
1753;SDS011;58380;48.312;9.246;2023-03-01T07:15:49;27.75;;;13.45;;
1753;SDS011;58380;48.312;9.246;2023-03-01T07:18:15;26.83;;;12.90;;
1753;SDS011;58380;48.312;9.246;2023-03-01T07:20:40;25.60;;;13.83;;
1753;SDS011;58380;48.312;9.246;2023-03-01T07:23:06;23.67;;;12.10;;
1753;SDS011;58380;48.312;9.246;2023-03-01T07:25:31;30.15;;;13.52;;
1753;SDS011;58380;48.312;9.246;2023-03-01T07:27:58;30.63;;;12.80;;
1753;SDS011;58380;48.312;9.246;2023-03-01T07:30:23;29.05;;;13.07;;
1753;SDS011;58380;48.312;9.246;2023-03-01T07:32:54;27.70;;;12.40;;
1753;SDS011;58380;48.312;9.246;2023-03-01T07:35:21;25.13;;;12.23;;
1753;SDS011;58380;48.312;9.246;2023-03-01T07:37:48;26.20;;;12.75;;
1753;SDS011;58380;48.312;9.246;2023-03-01T07:40:13;23.70;;;12.30;;
1753;SDS011;58380;48.312;9.246;2023-03-01T07:42:39;27.30;;;13.40;;
1753;SDS011;58380;48.312;9.246;2023-03-01T07:45:05;27.40;;;12.17;;
1753;SDS011;58380;48.312;9.246;2023-03-01T07:47:31;28.52;;;12.70;;
1753;SDS011;58380;48.312;9.246;2023-03-01T07:49:57;27.40;;;12.63;;
1753;SDS011;58380;48.312;9.246;2023-03-01T07:52:23;27.65;;;12.60;;
1753;SDS011;58380;48.312;9.246;2023-03-01T07:54:48;29.33;;;12.40;;
1753;SDS011;58380;48.312;9.246;2023-03-01T07:57:13;24.77;;;12.00;;
1753;SDS011;58380;48.312;9.246;2023-03-01T07:59:39;27.30;;;14.18;;
1753;SDS011;58380;48.312;9.246;2023-03-01T08:02:05;29.43;;;13.87;;
1753;SDS011;58380;48.312;9.246;2023-03-01T08:04:31;30.25;;;13.80;;
1753;SDS011;58380;48.312;9.246;2023-03-01T08:06:58;25.45;;;12.85;;
1753;SDS011;58380;48.312;9.246;2023-03-01T08:09:23;26.20;;;13.02;;
1753;SDS011;58380;48.312;9.246;2023-03-01T08:11:49;33.40;;;14.10;;
1753;SDS011;58380;48.312;9.246;2023-03-01T08:14:15;26.67;;;13.10;;
1753;SDS011;58380;48.312;9.246;2023-03-01T08:16:40;25.03;;;12.73;;
1753;SDS011;58380;48.312;9.246;2023-03-01T08:19:07;27.20;;;12.90;;
1753;SDS011;58380;48.312;9.246;2023-03-01T08:21:35;25.35;;;12.52;;
1753;SDS011;58380;48.312;9.246;2023-03-01T08:24:02;26.58;;;12.68;;
1753;SDS011;58380;48.312;9.246;2023-03-01T08:26:30;29.88;;;13.63;;
1753;SDS011;58380;48.312;9.246;2023-03-01T08:28:58;27.77;;;12.65;;
1753;SDS011;58380;48.312;9.246;2023-03-01T08:31:27;28.80;;;13.10;;
1753;SDS011;58380;48.312;9.246;2023-03-01T08:34:00;26.27;;;12.88;;
1753;SDS011;58380;48.312;9.246;2023-03-01T08:36:30;28.67;;;12.95;;
1753;SDS011;58380;48.312;9.246;2023-03-01T08:39:00;28.80;;;13.43;;
1753;SDS011;58380;48.312;9.246;2023-03-01T08:41:26;29.63;;;13.88;;
1753;SDS011;58380;48.312;9.246;2023-03-01T08:43:54;30.10;;;14.23;;
1753;SDS011;58380;48.312;9.246;2023-03-01T08:46:24;31.25;;;14.07;;
1753;SDS011;58380;48.312;9.246;2023-03-01T08:48:51;29.27;;;15.13;;
1753;SDS011;58380;48.312;9.246;2023-03-01T08:51:17;29.20;;;14.00;;
1753;SDS011;58380;48.312;9.246;2023-03-01T08:53:44;28.40;;;13.70;;
1753;SDS011;58380;48.312;9.246;2023-03-01T08:56:10;32.72;;;14.50;;
1753;SDS011;58380;48.312;9.246;2023-03-01T08:58:37;31.52;;;13.48;;
1753;SDS011;58380;48.312;9.246;2023-03-01T09:01:07;27.98;;;14.63;;
1753;SDS011;58380;48.312;9.246;2023-03-01T09:03:35;28.35;;;13.73;;
1753;SDS011;58380;48.312;9.246;2023-03-01T09:06:01;25.90;;;12.68;;
1753;SDS011;58380;48.312;9.246;2023-03-01T09:08:34;28.88;;;14.32;;
1753;SDS011;58380;48.312;9.246;2023-03-01T09:11:06;27.42;;;13.27;;
1753;SDS011;58380;48.312;9.246;2023-03-01T09:13:34;25.83;;;12.57;;
1753;SDS011;58380;48.312;9.246;2023-03-01T09:18:28;28.52;;;13.10;;
1753;SDS011;58380;48.312;9.246;2023-03-01T09:21:00;28.90;;;13.53;;
1753;SDS011;58380;48.312;9.246;2023-03-01T09:23:32;31.63;;;13.43;;
1753;SDS011;58380;48.312;9.246;2023-03-01T09:26:01;27.67;;;12.68;;
1753;SDS011;58380;48.312;9.246;2023-03-01T09:28:26;27.67;;;12.85;;
1753;SDS011;58380;48.312;9.246;2023-03-01T09:30:52;26.93;;;12.10;;
1753;SDS011;58380;48.312;9.246;2023-03-01T09:33:17;29.80;;;12.55;;
1753;SDS011;58380;48.312;9.246;2023-03-01T09:35:43;27.67;;;12.20;;
1753;SDS011;58380;48.312;9.246;2023-03-01T09:38:12;25.30;;;12.15;;
1753;SDS011;58380;48.312;9.246;2023-03-01T09:40:41;26.95;;;12.95;;
1753;SDS011;58380;48.312;9.246;2023-03-01T09:43:15;26.10;;;12.48;;
1753;SDS011;58380;48.312;9.246;2023-03-01T09:45:53;25.90;;;12.73;;
1753;SDS011;58380;48.312;9.246;2023-03-01T09:48:24;25.65;;;12.85;;
1753;SDS011;58380;48.312;9.246;2023-03-01T09:50:53;28.63;;;12.85;;
1753;SDS011;58380;48.312;9.246;2023-03-01T09:53:20;30.45;;;12.23;;
1753;SDS011;58380;48.312;9.246;2023-03-01T09:55:53;25.02;;;11.95;;
1753;SDS011;58380;48.312;9.246;2023-03-01T10:01:22;26.15;;;11.57;;
1753;SDS011;58380;48.312;9.246;2023-03-01T10:09:50;29.10;;;13.02;;
1753;SDS011;58380;48.312;9.246;2023-03-01T10:12:31;25.07;;;11.67;;
1753;SDS011;58380;48.312;9.246;2023-03-01T10:20:20;29.02;;;12.45;;
1753;SDS011;58380;48.312;9.246;2023-03-01T10:22:50;26.52;;;10.82;;
1753;SDS011;58380;48.312;9.246;2023-03-01T10:26:06;26.63;;;11.68;;
1753;SDS011;58380;48.312;9.246;2023-03-01T10:28:35;25.25;;;11.43;;
1753;SDS011;58380;48.312;9.246;2023-03-01T10:31:43;26.38;;;11.95;;
1753;SDS011;58380;48.312;9.246;2023-03-01T10:34:16;27.25;;;12.07;;
1753;SDS011;58380;48.312;9.246;2023-03-01T10:37:15;23.75;;;11.88;;
1753;SDS011;58380;48.312;9.246;2023-03-01T10:42:31;30.38;;;12.90;;
1753;SDS011;58380;48.312;9.246;2023-03-01T10:47:44;26.70;;;12.35;;
1753;SDS011;58380;48.312;9.246;2023-03-01T10:50:27;25.27;;;10.77;;
1753;SDS011;58380;48.312;9.246;2023-03-01T10:53:00;26.90;;;12.27;;
1753;SDS011;58380;48.312;9.246;2023-03-01T10:55:38;27.23;;;12.02;;
1753;SDS011;58380;48.312;9.246;2023-03-01T10:58:11;28.88;;;12.85;;
1753;SDS011;58380;48.312;9.246;2023-03-01T11:00:46;27.38;;;12.38;;
1753;SDS011;58380;48.312;9.246;2023-03-01T11:03:31;29.60;;;12.43;;
1753;SDS011;58380;48.312;9.246;2023-03-01T11:08:38;27.38;;;11.95;;
1753;SDS011;58380;48.312;9.246;2023-03-01T11:14:01;26.75;;;12.07;;
1753;SDS011;58380;48.312;9.246;2023-03-01T11:16:38;29.02;;;12.15;;
1753;SDS011;58380;48.312;9.246;2023-03-01T11:21:42;24.48;;;11.75;;
1753;SDS011;58380;48.312;9.246;2023-03-01T11:24:15;25.50;;;13.02;;
1753;SDS011;58380;48.312;9.246;2023-03-01T11:26:44;25.45;;;11.88;;
1753;SDS011;58380;48.312;9.246;2023-03-01T11:29:26;26.20;;;12.40;;
1753;SDS011;58380;48.312;9.246;2023-03-01T11:31:59;27.08;;;11.68;;
1753;SDS011;58380;48.312;9.246;2023-03-01T11:34:35;27.17;;;13.23;;
1753;SDS011;58380;48.312;9.246;2023-03-01T11:37:18;26.50;;;13.30;;
1753;SDS011;58380;48.312;9.246;2023-03-01T11:40:03;29.55;;;13.20;;
1753;SDS011;58380;48.312;9.246;2023-03-01T11:42:50;31.05;;;13.10;;
1753;SDS011;58380;48.312;9.246;2023-03-01T11:45:33;25.48;;;12.52;;
1753;SDS011;58380;48.312;9.246;2023-03-01T11:48:51;26.05;;;13.68;;
1753;SDS011;58380;48.312;9.246;2023-03-01T11:54:24;32.88;;;14.13;;
1753;SDS011;58380;48.312;9.246;2023-03-01T11:57:11;29.08;;;13.75;;
1753;SDS011;58380;48.312;9.246;2023-03-01T12:00:25;29.00;;;14.20;;
1753;SDS011;58380;48.312;9.246;2023-03-01T12:10:13;27.48;;;12.75;;
1753;SDS011;58380;48.312;9.246;2023-03-01T12:13:04;29.40;;;13.57;;
1753;SDS011;58380;48.312;9.246;2023-03-01T12:24:32;27.67;;;13.75;;
1753;SDS011;58380;48.312;9.246;2023-03-01T12:30:21;27.52;;;13.40;;
1753;SDS011;58380;48.312;9.246;2023-03-01T12:42:05;32.92;;;14.15;;
1753;SDS011;58380;48.312;9.246;2023-03-01T12:45:46;24.35;;;11.43;;
1753;SDS011;58380;48.312;9.246;2023-03-01T12:49:06;26.05;;;11.38;;
1753;SDS011;58380;48.312;9.246;2023-03-01T12:51:43;26.27;;;12.45;;
1753;SDS011;58380;48.312;9.246;2023-03-01T12:54:28;23.38;;;12.15;;
1753;SDS011;58380;48.312;9.246;2023-03-01T12:56:59;24.48;;;12.20;;
1753;SDS011;58380;48.312;9.246;2023-03-01T12:59:39;21.20;;;12.00;;
1753;SDS011;58380;48.312;9.246;2023-03-01T13:02:26;26.13;;;12.73;;
1753;SDS011;58380;48.312;9.246;2023-03-01T13:13:12;25.58;;;12.02;;
1753;SDS011;58380;48.312;9.246;2023-03-01T13:15:44;24.58;;;11.50;;
1753;SDS011;58380;48.312;9.246;2023-03-01T13:37:04;26.25;;;11.32;;
1753;SDS011;58380;48.312;9.246;2023-03-01T13:42:28;22.20;;;11.18;;
1753;SDS011;58380;48.312;9.246;2023-03-01T13:45:14;22.35;;;10.95;;
1753;SDS011;58380;48.312;9.246;2023-03-01T13:47:45;22.45;;;11.10;;
1753;SDS011;58380;48.312;9.246;2023-03-01T13:50:24;20.13;;;9.27;;
1753;SDS011;58380;48.312;9.246;2023-03-01T13:52:58;20.05;;;9.98;;
1753;SDS011;58380;48.312;9.246;2023-03-01T13:55:44;21.27;;;10.80;;
1753;SDS011;58380;48.312;9.246;2023-03-01T14:00:58;24.67;;;10.90;;
1753;SDS011;58380;48.312;9.246;2023-03-01T14:04:14;22.25;;;11.02;;
1753;SDS011;58380;48.312;9.246;2023-03-01T14:06:51;22.00;;;10.63;;
1753;SDS011;58380;48.312;9.246;2023-03-01T14:09:34;21.08;;;10.50;;
1753;SDS011;58380;48.312;9.246;2023-03-01T14:17:57;23.52;;;10.15;;
1753;SDS011;58380;48.312;9.246;2023-03-01T14:20:47;21.67;;;10.90;;
1753;SDS011;58380;48.312;9.246;2023-03-01T14:23:18;22.08;;;10.50;;
1753;SDS011;58380;48.312;9.246;2023-03-01T14:25:48;25.55;;;12.40;;
1753;SDS011;58380;48.312;9.246;2023-03-01T14:28:25;22.13;;;10.75;;
1753;SDS011;58380;48.312;9.246;2023-03-01T14:30:56;21.35;;;11.32;;
1753;SDS011;58380;48.312;9.246;2023-03-01T14:33:34;21.65;;;10.10;;
1753;SDS011;58380;48.312;9.246;2023-03-01T14:36:06;21.50;;;11.23;;
1753;SDS011;58380;48.312;9.246;2023-03-01T14:38:44;20.05;;;9.35;;
1753;SDS011;58380;48.312;9.246;2023-03-01T14:41:13;25.00;;;10.35;;
1753;SDS011;58380;48.312;9.246;2023-03-01T14:43:55;19.55;;;9.90;;
1753;SDS011;58380;48.312;9.246;2023-03-01T14:46:29;22.67;;;11.30;;
1753;SDS011;58380;48.312;9.246;2023-03-01T14:49:22;24.55;;;11.05;;
1753;SDS011;58380;48.312;9.246;2023-03-01T14:52:04;22.70;;;10.98;;
1753;SDS011;58380;48.312;9.246;2023-03-01T14:54:49;24.42;;;11.60;;
1753;SDS011;58380;48.312;9.246;2023-03-01T14:57:22;24.20;;;12.23;;
1753;SDS011;58380;48.312;9.246;2023-03-01T14:59:54;24.95;;;12.30;;
1753;SDS011;58380;48.312;9.246;2023-03-01T15:02:26;27.55;;;11.73;;
1753;SDS011;58380;48.312;9.246;2023-03-01T15:04:54;22.45;;;10.75;;
1753;SDS011;58380;48.312;9.246;2023-03-01T15:07:26;22.67;;;10.57;;
1753;SDS011;58380;48.312;9.246;2023-03-01T15:09:58;23.73;;;10.50;;
1753;SDS011;58380;48.312;9.246;2023-03-01T15:14:53;26.83;;;11.35;;
1753;SDS011;58380;48.312;9.246;2023-03-01T15:17:31;21.65;;;10.80;;
1753;SDS011;58380;48.312;9.246;2023-03-01T15:20:00;20.35;;;10.15;;
1753;SDS011;58380;48.312;9.246;2023-03-01T15:22:29;23.55;;;10.13;;
1753;SDS011;58380;48.312;9.246;2023-03-01T15:24:55;23.50;;;10.15;;
1753;SDS011;58380;48.312;9.246;2023-03-01T15:27:24;22.15;;;9.88;;
1753;SDS011;58380;48.312;9.246;2023-03-01T15:29:52;20.83;;;10.80;;
1753;SDS011;58380;48.312;9.246;2023-03-01T15:32:29;22.02;;;10.75;;
1753;SDS011;58380;48.312;9.246;2023-03-01T15:35:00;21.60;;;10.38;;
1753;SDS011;58380;48.312;9.246;2023-03-01T15:38:26;21.13;;;11.15;;
1753;SDS011;58380;48.312;9.246;2023-03-01T15:41:23;22.27;;;10.73;;
1753;SDS011;58380;48.312;9.246;2023-03-01T15:44:15;22.17;;;11.32;;
1753;SDS011;58380;48.312;9.246;2023-03-01T15:46:45;23.55;;;10.25;;
1753;SDS011;58380;48.312;9.246;2023-03-01T15:49:27;21.10;;;10.20;;
1753;SDS011;58380;48.312;9.246;2023-03-01T15:51:59;21.30;;;10.27;;
1753;SDS011;58380;48.312;9.246;2023-03-01T15:54:25;20.27;;;10.27;;
1753;SDS011;58380;48.312;9.246;2023-03-01T15:56:52;21.77;;;10.82;;
1753;SDS011;58380;48.312;9.246;2023-03-01T15:59:18;20.65;;;10.73;;
1753;SDS011;58380;48.312;9.246;2023-03-01T16:01:44;21.00;;;10.85;;
1753;SDS011;58380;48.312;9.246;2023-03-01T16:04:13;17.98;;;9.65;;
1753;SDS011;58380;48.312;9.246;2023-03-01T16:06:54;27.88;;;10.90;;
1753;SDS011;58380;48.312;9.246;2023-03-01T16:09:24;21.63;;;11.00;;
1753;SDS011;58380;48.312;9.246;2023-03-01T16:11:51;22.35;;;11.30;;
1753;SDS011;58380;48.312;9.246;2023-03-01T16:14:18;19.63;;;10.63;;
1753;SDS011;58380;48.312;9.246;2023-03-01T16:16:44;20.70;;;10.48;;
1753;SDS011;58380;48.312;9.246;2023-03-01T16:19:10;22.70;;;10.68;;
1753;SDS011;58380;48.312;9.246;2023-03-01T16:21:36;22.88;;;10.75;;
1753;SDS011;58380;48.312;9.246;2023-03-01T16:26:28;21.17;;;10.07;;
1753;SDS011;58380;48.312;9.246;2023-03-01T16:28:54;19.53;;;10.13;;
1753;SDS011;58380;48.312;9.246;2023-03-01T16:31:22;22.75;;;10.75;;
1753;SDS011;58380;48.312;9.246;2023-03-01T16:33:48;20.77;;;10.77;;
1753;SDS011;58380;48.312;9.246;2023-03-01T16:36:16;22.02;;;10.65;;
1753;SDS011;58380;48.312;9.246;2023-03-01T16:38:44;21.38;;;11.18;;
1753;SDS011;58380;48.312;9.246;2023-03-01T16:41:14;21.38;;;10.57;;
1753;SDS011;58380;48.312;9.246;2023-03-01T16:43:42;24.27;;;11.13;;
1753;SDS011;58380;48.312;9.246;2023-03-01T16:46:11;22.23;;;10.73;;
1753;SDS011;58380;48.312;9.246;2023-03-01T16:48:43;20.65;;;10.32;;
1753;SDS011;58380;48.312;9.246;2023-03-01T16:51:09;23.20;;;10.75;;
1753;SDS011;58380;48.312;9.246;2023-03-01T16:53:35;24.02;;;10.85;;
1753;SDS011;58380;48.312;9.246;2023-03-01T16:56:02;23.30;;;10.70;;
1753;SDS011;58380;48.312;9.246;2023-03-01T16:58:31;23.48;;;11.13;;
1753;SDS011;58380;48.312;9.246;2023-03-01T17:01:01;25.43;;;10.33;;
1753;SDS011;58380;48.312;9.246;2023-03-01T17:03:36;25.63;;;10.85;;
1753;SDS011;58380;48.312;9.246;2023-03-01T17:06:07;20.15;;;9.88;;
1753;SDS011;58380;48.312;9.246;2023-03-01T17:08:37;21.95;;;10.48;;
1753;SDS011;58380;48.312;9.246;2023-03-01T17:11:07;21.25;;;10.32;;
1753;SDS011;58380;48.312;9.246;2023-03-01T17:13:39;21.80;;;9.93;;
1753;SDS011;58380;48.312;9.246;2023-03-01T17:16:07;18.75;;;10.02;;
1753;SDS011;58380;48.312;9.246;2023-03-01T17:18:35;20.75;;;10.45;;
1753;SDS011;58380;48.312;9.246;2023-03-01T17:21:02;22.83;;;10.45;;
1753;SDS011;58380;48.312;9.246;2023-03-01T17:23:29;19.95;;;10.00;;
1753;SDS011;58380;48.312;9.246;2023-03-01T17:25:56;21.92;;;10.65;;
1753;SDS011;58380;48.312;9.246;2023-03-01T17:28:22;21.10;;;10.02;;
1753;SDS011;58380;48.312;9.246;2023-03-01T17:30:52;23.48;;;10.52;;
1753;SDS011;58380;48.312;9.246;2023-03-01T17:35:45;20.50;;;8.80;;
1753;SDS011;58380;48.312;9.246;2023-03-01T17:40:38;20.05;;;8.88;;
1753;SDS011;58380;48.312;9.246;2023-03-01T17:43:04;20.30;;;9.63;;
1753;SDS011;58380;48.312;9.246;2023-03-01T17:45:29;18.77;;;8.93;;
1753;SDS011;58380;48.312;9.246;2023-03-01T17:47:55;20.33;;;9.37;;
1753;SDS011;58380;48.312;9.246;2023-03-01T17:50:20;21.00;;;9.63;;
1753;SDS011;58380;48.312;9.246;2023-03-01T17:52:46;20.77;;;10.13;;
1753;SDS011;58380;48.312;9.246;2023-03-01T17:55:11;20.33;;;8.77;;
1753;SDS011;58380;48.312;9.246;2023-03-01T17:57:38;22.17;;;9.83;;
1753;SDS011;58380;48.312;9.246;2023-03-01T18:00:05;21.10;;;9.55;;
1753;SDS011;58380;48.312;9.246;2023-03-01T18:02:35;23.95;;;10.60;;
1753;SDS011;58380;48.312;9.246;2023-03-01T18:05:01;19.77;;;9.47;;
1753;SDS011;58380;48.312;9.246;2023-03-01T18:07:27;23.70;;;9.48;;
1753;SDS011;58380;48.312;9.246;2023-03-01T18:09:52;23.90;;;10.10;;
1753;SDS011;58380;48.312;9.246;2023-03-01T18:12:18;21.07;;;10.83;;
1753;SDS011;58380;48.312;9.246;2023-03-01T18:14:43;19.47;;;8.50;;
1753;SDS011;58380;48.312;9.246;2023-03-01T18:17:09;18.48;;;9.02;;
1753;SDS011;58380;48.312;9.246;2023-03-01T18:19:39;18.90;;;9.13;;
1753;SDS011;58380;48.312;9.246;2023-03-01T18:22:05;19.20;;;9.77;;
1753;SDS011;58380;48.312;9.246;2023-03-01T18:24:32;19.70;;;9.85;;
1753;SDS011;58380;48.312;9.246;2023-03-01T18:26:59;19.73;;;9.30;;
1753;SDS011;58380;48.312;9.246;2023-03-01T18:29:24;20.45;;;9.40;;
1753;SDS011;58380;48.312;9.246;2023-03-01T18:31:52;23.48;;;9.70;;
1753;SDS011;58380;48.312;9.246;2023-03-01T18:34:17;24.33;;;9.60;;
1753;SDS011;58380;48.312;9.246;2023-03-01T18:36:43;19.17;;;8.50;;
1753;SDS011;58380;48.312;9.246;2023-03-01T18:39:08;22.67;;;8.90;;
1753;SDS011;58380;48.312;9.246;2023-03-01T18:41:34;25.33;;;11.00;;
1753;SDS011;58380;48.312;9.246;2023-03-01T18:44:01;19.17;;;8.95;;
1753;SDS011;58380;48.312;9.246;2023-03-01T18:46:28;22.92;;;10.23;;
1753;SDS011;58380;48.312;9.246;2023-03-01T18:48:54;19.33;;;9.73;;
1753;SDS011;58380;48.312;9.246;2023-03-01T18:51:24;22.37;;;9.83;;
1753;SDS011;58380;48.312;9.246;2023-03-01T18:53:51;18.23;;;8.82;;
1753;SDS011;58380;48.312;9.246;2023-03-01T18:56:17;21.83;;;8.82;;
1753;SDS011;58380;48.312;9.246;2023-03-01T18:58:43;20.80;;;9.67;;
1753;SDS011;58380;48.312;9.246;2023-03-01T19:01:19;18.77;;;9.17;;
1753;SDS011;58380;48.312;9.246;2023-03-01T19:03:47;22.83;;;9.50;;
1753;SDS011;58380;48.312;9.246;2023-03-01T19:06:13;16.67;;;8.98;;
1753;SDS011;58380;48.312;9.246;2023-03-01T19:08:40;22.70;;;9.88;;
1753;SDS011;58380;48.312;9.246;2023-03-01T19:11:06;16.10;;;8.88;;
1753;SDS011;58380;48.312;9.246;2023-03-01T19:13:34;21.33;;;9.27;;
1753;SDS011;58380;48.312;9.246;2023-03-01T19:18:36;23.75;;;9.75;;
1753;SDS011;58380;48.312;9.246;2023-03-01T19:21:06;18.77;;;8.63;;
1753;SDS011;58380;48.312;9.246;2023-03-01T19:23:35;18.98;;;9.13;;
1753;SDS011;58380;48.312;9.246;2023-03-01T19:26:04;18.13;;;8.65;;
1753;SDS011;58380;48.312;9.246;2023-03-01T19:28:35;18.95;;;9.57;;
1753;SDS011;58380;48.312;9.246;2023-03-01T19:31:03;20.33;;;8.65;;
1753;SDS011;58380;48.312;9.246;2023-03-01T19:33:35;19.42;;;9.07;;
1753;SDS011;58380;48.312;9.246;2023-03-01T19:36:01;20.63;;;9.23;;
1753;SDS011;58380;48.312;9.246;2023-03-01T19:40:54;20.27;;;9.43;;
1753;SDS011;58380;48.312;9.246;2023-03-01T19:43:21;19.92;;;9.20;;
1753;SDS011;58380;48.312;9.246;2023-03-01T19:45:51;23.85;;;9.95;;
1753;SDS011;58380;48.312;9.246;2023-03-01T19:48:19;21.92;;;9.10;;
1753;SDS011;58380;48.312;9.246;2023-03-01T19:50:46;18.05;;;8.57;;
1753;SDS011;58380;48.312;9.246;2023-03-01T19:53:12;21.50;;;9.43;;
1753;SDS011;58380;48.312;9.246;2023-03-01T19:55:39;21.40;;;9.82;;
1753;SDS011;58380;48.312;9.246;2023-03-01T20:00:32;20.23;;;9.15;;
1753;SDS011;58380;48.312;9.246;2023-03-01T20:02:59;18.35;;;8.32;;
1753;SDS011;58380;48.312;9.246;2023-03-01T20:05:25;19.85;;;9.15;;
1753;SDS011;58380;48.312;9.246;2023-03-01T20:07:50;18.53;;;9.30;;
1753;SDS011;58380;48.312;9.246;2023-03-01T20:10:23;21.63;;;9.40;;
1753;SDS011;58380;48.312;9.246;2023-03-01T20:12:52;23.38;;;9.18;;
1753;SDS011;58380;48.312;9.246;2023-03-01T20:15:18;19.25;;;8.68;;
1753;SDS011;58380;48.312;9.246;2023-03-01T20:17:44;20.45;;;9.63;;
1753;SDS011;58380;48.312;9.246;2023-03-01T20:20:10;18.87;;;9.73;;
1753;SDS011;58380;48.312;9.246;2023-03-01T20:22:36;21.33;;;9.02;;
1753;SDS011;58380;48.312;9.246;2023-03-01T20:25:01;21.87;;;9.33;;
1753;SDS011;58380;48.312;9.246;2023-03-01T20:27:27;20.80;;;9.15;;
1753;SDS011;58380;48.312;9.246;2023-03-01T20:29:53;21.70;;;9.53;;
1753;SDS011;58380;48.312;9.246;2023-03-01T20:32:18;20.87;;;9.07;;
1753;SDS011;58380;48.312;9.246;2023-03-01T20:34:43;21.43;;;10.10;;
1753;SDS011;58380;48.312;9.246;2023-03-01T20:37:09;19.27;;;9.07;;
1753;SDS011;58380;48.312;9.246;2023-03-01T20:39:34;21.10;;;9.50;;
1753;SDS011;58380;48.312;9.246;2023-03-01T20:42:00;21.03;;;10.10;;
1753;SDS011;58380;48.312;9.246;2023-03-01T20:44:25;22.97;;;9.30;;
1753;SDS011;58380;48.312;9.246;2023-03-01T20:46:51;19.83;;;9.40;;
1753;SDS011;58380;48.312;9.246;2023-03-01T20:49:16;20.00;;;9.02;;
1753;SDS011;58380;48.312;9.246;2023-03-01T20:51:42;22.13;;;9.57;;
1753;SDS011;58380;48.312;9.246;2023-03-01T20:54:08;25.15;;;12.02;;
1753;SDS011;58380;48.312;9.246;2023-03-01T21:20:47;21.27;;;8.77;;
1753;SDS011;58380;48.312;9.246;2023-03-01T21:23:13;18.50;;;9.10;;
1753;SDS011;58380;48.312;9.246;2023-03-01T21:25:39;20.08;;;8.65;;
1753;SDS011;58380;48.312;9.246;2023-03-01T21:28:05;18.50;;;8.63;;
1753;SDS011;58380;48.312;9.246;2023-03-01T21:30:30;22.92;;;9.00;;
1753;SDS011;58380;48.312;9.246;2023-03-01T21:32:56;18.60;;;8.43;;
1753;SDS011;58380;48.312;9.246;2023-03-01T21:35:22;22.48;;;9.52;;
1753;SDS011;58380;48.312;9.246;2023-03-01T21:37:47;19.80;;;9.13;;
1753;SDS011;58380;48.312;9.246;2023-03-01T21:40:13;21.07;;;9.47;;
1753;SDS011;58380;48.312;9.246;2023-03-01T21:42:39;23.08;;;10.38;;
1753;SDS011;58380;48.312;9.246;2023-03-01T21:45:06;25.80;;;11.27;;
1753;SDS011;58380;48.312;9.246;2023-03-01T21:47:32;19.20;;;8.88;;
1753;SDS011;58380;48.312;9.246;2023-03-01T21:49:59;19.80;;;9.00;;
1753;SDS011;58380;48.312;9.246;2023-03-01T21:52:25;23.60;;;9.37;;
1753;SDS011;58380;48.312;9.246;2023-03-01T21:54:50;22.47;;;9.33;;
1753;SDS011;58380;48.312;9.246;2023-03-01T21:57:16;20.80;;;9.32;;
1753;SDS011;58380;48.312;9.246;2023-03-01T21:59:41;21.77;;;9.93;;
1753;SDS011;58380;48.312;9.246;2023-03-01T22:02:09;21.70;;;9.43;;
1753;SDS011;58380;48.312;9.246;2023-03-01T22:04:38;22.23;;;9.05;;
1753;SDS011;58380;48.312;9.246;2023-03-01T22:07:05;19.85;;;9.02;;
1753;SDS011;58380;48.312;9.246;2023-03-01T22:09:30;20.05;;;9.27;;
1753;SDS011;58380;48.312;9.246;2023-03-01T22:11:58;23.63;;;11.52;;
1753;SDS011;58380;48.312;9.246;2023-03-01T22:14:27;22.48;;;9.57;;
1753;SDS011;58380;48.312;9.246;2023-03-01T22:16:55;21.23;;;10.23;;
1753;SDS011;58380;48.312;9.246;2023-03-01T22:21:48;21.77;;;9.20;;
1753;SDS011;58380;48.312;9.246;2023-03-01T22:24:16;18.92;;;9.18;;
1753;SDS011;58380;48.312;9.246;2023-03-01T22:26:45;21.05;;;9.70;;
1753;SDS011;58380;48.312;9.246;2023-03-01T22:29:14;23.90;;;10.40;;
1753;SDS011;58380;48.312;9.246;2023-03-01T22:31:46;25.63;;;10.48;;
1753;SDS011;58380;48.312;9.246;2023-03-01T22:34:12;24.33;;;11.45;;
1753;SDS011;58380;48.312;9.246;2023-03-01T22:39:04;18.73;;;9.95;;
